Time;durP1;ratioP1;P1;durP2;ratioP2;P2;SDS_P1;SDS_P2;PMS_P1;PMS_P2;Temp;Humidity;BMP_temperature;BMP_pressure;BME280_temperature;BME280_humidity;BME280_pressure;Samples;Min_cycle;Max_cycle;Signal;HPM_P1;HPM_P2
2023/07/04 00:01:04;;;;;;;;;10.67;9.67;;;;;;;;5027993;28;45478;-78
2023/07/04 00:03:31;;;;;;;;;8.33;6.00;;;;;;;;5031675;28;47191;-80
2023/07/04 00:05:57;;;;;;;;;14.00;11.00;;;;;;;;5027115;28;45635;-80
2023/07/04 00:08:25;;;;;;;;;20.67;17.00;;;;;;;;5027855;28;45520;-79
2023/07/04 00:10:50;;;;;;;;;14.67;8.33;;;;;;;;5049395;28;45565;-80
2023/07/04 00:13:17;;;;;;;;;27.00;21.67;;;;;;;;5044859;28;45132;-80
2023/07/04 00:15:46;;;;;;;;;19.00;13.67;;;;;;;;5043947;28;45300;-80
2023/07/04 00:18:15;;;;;;;;;13.33;11.67;;;;;;;;5033149;28;45405;-81
2023/07/04 00:20:40;;;;;;;;;12.33;8.33;;;;;;;;5038598;28;45892;-80
2023/07/04 00:23:07;;;;;;;;;17.33;12.00;;;;;;;;5042636;28;45567;-79
2023/07/04 00:25:33;;;;;;;;;10.67;10.00;;;;;;;;5043252;28;45465;-81
2023/07/04 00:28:02;;;;;;;;;12.33;9.67;;;;;;;;5043928;28;44784;-81
2023/07/04 00:30:30;;;;;;;;;9.67;9.67;;;;;;;;5028782;28;46247;-80
2023/07/04 00:32:55;;;;;;;;;21.33;18.67;;;;;;;;5028887;28;47206;-80
2023/07/04 00:35:21;;;;;;;;;12.67;11.33;;;;;;;;5049049;28;45390;-79
2023/07/04 00:37:46;;;;;;;;;10.33;9.00;;;;;;;;5031623;28;45505;-78
2023/07/04 00:40:12;;;;;;;;;15.00;14.00;;;;;;;;5049782;28;45462;-79
2023/07/04 00:42:37;;;;;;;;;12.67;8.33;;;;;;;;5037041;28;45316;-78
2023/07/04 00:45:09;;;;;;;;;8.33;8.33;;;;;;;;5047469;28;45652;-79
2023/07/04 00:47:43;;;;;;;;;13.67;10.33;;;;;;;;5046526;28;45405;-80
2023/07/04 00:50:09;;;;;;;;;12.33;11.00;;;;;;;;5047550;28;45482;-79
2023/07/04 00:52:36;;;;;;;;;22.00;18.67;;;;;;;;5049483;28;45571;-80
2023/07/04 00:55:07;;;;;;;;;15.33;9.33;;;;;;;;5030448;28;45435;-80
2023/07/04 00:57:37;;;;;;;;;16.33;14.33;;;;;;;;5044761;28;45440;-79
2023/07/04 01:00:20;;;;;;;;;13.00;11.00;;;;;;;;5019606;28;45511;-79
2023/07/04 01:02:49;;;;;;;;;32.00;27.33;;;;;;;;5045313;28;45543;-80
2023/07/04 01:05:20;;;;;;;;;48.00;39.00;;;;;;;;5040460;28;45759;-77
2023/07/04 01:07:59;;;;;;;;;38.33;34.67;;;;;;;;5021952;28;45493;-78
2023/07/04 01:10:27;;;;;;;;;32.00;26.33;;;;;;;;5041468;28;45097;-78
2023/07/04 01:12:55;;;;;;;;;23.33;21.33;;;;;;;;5046058;28;45649;-80
2023/07/04 01:15:23;;;;;;;;;21.00;17.67;;;;;;;;5047068;28;45693;-80
2023/07/04 01:17:49;;;;;;;;;15.67;11.67;;;;;;;;5046154;28;45419;-79
2023/07/04 01:20:16;;;;;;;;;11.33;9.67;;;;;;;;5047653;28;46262;-79
2023/07/04 01:22:54;;;;;;;;;10.33;7.00;;;;;;;;5044455;28;46013;-79
2023/07/04 01:25:45;;;;;;;;;6.00;6.00;;;;;;;;5041290;28;45212;-78
2023/07/04 01:28:13;;;;;;;;;15.00;8.67;;;;;;;;5047101;28;45399;-82
2023/07/04 01:30:39;;;;;;;;;8.33;6.67;;;;;;;;5029821;28;45418;-83
2023/07/04 01:33:11;;;;;;;;;11.67;10.33;;;;;;;;5030190;28;45852;-82
2023/07/04 01:35:37;;;;;;;;;17.33;16.33;;;;;;;;5027783;28;45543;-84
2023/07/04 01:38:06;;;;;;;;;15.67;14.67;;;;;;;;5046264;28;45807;-82
2023/07/04 01:40:34;;;;;;;;;13.00;10.00;;;;;;;;5027658;28;44899;-81
2023/07/04 01:43:06;;;;;;;;;15.00;10.00;;;;;;;;5029657;28;45673;-81
2023/07/04 01:45:32;;;;;;;;;9.00;8.00;;;;;;;;5039551;28;45379;-83
2023/07/04 01:48:07;;;;;;;;;8.33;7.33;;;;;;;;5048760;28;45800;-82
2023/07/04 01:50:32;;;;;;;;;8.33;7.00;;;;;;;;5033925;28;45723;-84
2023/07/04 01:53:02;;;;;;;;;6.00;4.00;;;;;;;;5037152;28;45545;-81
2023/07/04 01:55:28;;;;;;;;;13.67;7.67;;;;;;;;5039703;28;45817;-84
2023/07/04 01:58:00;;;;;;;;;10.67;7.67;;;;;;;;5016182;28;45581;-82
2023/07/04 02:00:26;;;;;;;;;9.67;7.00;;;;;;;;5016873;28;45444;-82
2023/07/04 02:02:57;;;;;;;;;6.00;5.00;;;;;;;;5017959;28;45747;-84
2023/07/04 02:05:22;;;;;;;;;7.33;5.33;;;;;;;;5016270;28;45499;-84
2023/07/04 02:07:48;;;;;;;;;4.67;4.67;;;;;;;;5015523;28;45995;-81
2023/07/04 02:10:13;;;;;;;;;5.33;5.33;;;;;;;;5025118;28;45391;-81
2023/07/04 02:12:38;;;;;;;;;6.67;4.00;;;;;;;;5024059;28;45457;-82
2023/07/04 02:15:04;;;;;;;;;6.00;6.00;;;;;;;;5023748;28;45786;-81
2023/07/04 02:17:29;;;;;;;;;6.67;6.33;;;;;;;;5024783;28;44793;-80
2023/07/04 02:19:54;;;;;;;;;5.00;5.00;;;;;;;;5024913;28;45321;-81
2023/07/04 02:22:20;;;;;;;;;6.67;5.33;;;;;;;;5026599;28;45412;-82
2023/07/04 02:24:45;;;;;;;;;4.00;3.67;;;;;;;;5025700;28;45377;-81
2023/07/04 02:27:10;;;;;;;;;4.00;4.00;;;;;;;;5027374;28;45848;-82
2023/07/04 02:29:36;;;;;;;;;5.67;5.67;;;;;;;;5025089;28;45665;-81
2023/07/04 02:32:01;;;;;;;;;7.67;5.00;;;;;;;;5023832;28;45351;-83
2023/07/04 02:34:27;;;;;;;;;5.67;5.33;;;;;;;;5025891;28;45425;-83
2023/07/04 02:36:52;;;;;;;;;7.00;5.67;;;;;;;;5026017;28;45469;-82
2023/07/04 02:39:17;;;;;;;;;5.00;5.00;;;;;;;;5028506;28;45233;-83
2023/07/04 02:41:43;;;;;;;;;4.00;1.33;;;;;;;;5024476;28;45912;-83
2023/07/04 02:44:08;;;;;;;;;5.00;4.00;;;;;;;;5013057;28;45463;-83
2023/07/04 02:46:34;;;;;;;;;7.00;4.00;;;;;;;;5018606;28;45468;-83
2023/07/04 02:48:59;;;;;;;;;6.33;3.00;;;;;;;;5017573;28;45754;-82
2023/07/04 02:51:24;;;;;;;;;6.00;6.00;;;;;;;;5019118;28;46401;-81
2023/07/04 02:53:50;;;;;;;;;4.00;4.00;;;;;;;;5020570;28;45504;-83
2023/07/04 02:56:15;;;;;;;;;4.67;3.00;;;;;;;;5027932;28;45696;-83
2023/07/04 02:58:40;;;;;;;;;4.67;4.00;;;;;;;;5046072;28;45556;-84
2023/07/04 03:01:06;;;;;;;;;4.00;4.00;;;;;;;;5029679;28;45369;-83
2023/07/04 03:03:32;;;;;;;;;5.33;5.33;;;;;;;;5045191;28;45591;-82
2023/07/04 03:05:58;;;;;;;;;6.67;6.00;;;;;;;;5028068;28;45360;-83
2023/07/04 03:08:24;;;;;;;;;4.67;4.00;;;;;;;;5035563;28;45388;-84
2023/07/04 03:10:49;;;;;;;;;5.33;3.00;;;;;;;;5046849;28;45302;-83
2023/07/04 03:13:14;;;;;;;;;10.00;5.00;;;;;;;;5046196;28;45262;-83
2023/07/04 03:15:40;;;;;;;;;7.33;4.00;;;;;;;;5028365;28;44779;-82
2023/07/04 03:18:05;;;;;;;;;4.67;4.00;;;;;;;;5047288;28;45341;-82
2023/07/04 03:20:30;;;;;;;;;6.00;4.00;;;;;;;;5043288;28;46734;-80
2023/07/04 03:22:56;;;;;;;;;4.67;2.33;;;;;;;;5045188;28;45413;-82
2023/07/04 03:25:21;;;;;;;;;5.33;5.00;;;;;;;;5027272;28;45320;-82
2023/07/04 03:27:46;;;;;;;;;6.33;4.67;;;;;;;;5045524;28;45336;-83
2023/07/04 03:30:12;;;;;;;;;8.33;5.67;;;;;;;;5045191;28;45976;-81
2023/07/04 03:32:37;;;;;;;;;5.00;5.00;;;;;;;;5045566;28;45423;-82
2023/07/04 03:35:03;;;;;;;;;4.00;4.00;;;;;;;;5046496;28;45283;-83
2023/07/04 03:37:29;;;;;;;;;5.00;4.67;;;;;;;;5041021;28;44817;-84
2023/07/04 03:39:56;;;;;;;;;3.67;3.67;;;;;;;;5046878;28;45882;-83
2023/07/04 03:42:22;;;;;;;;;5.00;3.67;;;;;;;;5031373;28;45596;-83
2023/07/04 03:44:48;;;;;;;;;6.67;5.33;;;;;;;;5029976;28;45277;-85
2023/07/04 03:47:22;;;;;;;;;7.33;4.33;;;;;;;;5032522;28;46099;-84
2023/07/04 03:49:59;;;;;;;;;6.00;5.33;;;;;;;;5048829;28;45363;-84
2023/07/04 03:52:24;;;;;;;;;8.67;6.67;;;;;;;;5031113;28;45194;-82
2023/07/04 03:54:49;;;;;;;;;6.33;4.33;;;;;;;;5046687;28;45359;-84
2023/07/04 03:57:18;;;;;;;;;8.00;4.67;;;;;;;;5033498;28;45809;-81
2023/07/04 03:59:46;;;;;;;;;5.00;5.00;;;;;;;;5034310;28;47116;-81
2023/07/04 04:02:12;;;;;;;;;6.67;5.00;;;;;;;;5044085;28;45239;-82
2023/07/04 04:04:39;;;;;;;;;9.67;5.67;;;;;;;;5043177;28;45434;-81
2023/07/04 04:07:07;;;;;;;;;7.00;5.67;;;;;;;;5024103;28;45996;-85
2023/07/04 04:09:34;;;;;;;;;6.33;5.33;;;;;;;;5041189;28;45525;-81
2023/07/04 04:12:00;;;;;;;;;4.00;4.00;;;;;;;;5031408;28;45802;-82
2023/07/04 04:14:27;;;;;;;;;3.67;3.67;;;;;;;;5033459;28;45608;-83
2023/07/04 04:16:56;;;;;;;;;3.00;3.00;;;;;;;;5031540;28;46236;-83
2023/07/04 04:19:21;;;;;;;;;4.00;4.00;;;;;;;;5049948;28;47043;-84
2023/07/04 04:21:47;;;;;;;;;6.00;6.00;;;;;;;;5053503;28;44713;-82
2023/07/04 04:24:15;;;;;;;;;4.67;3.33;;;;;;;;5031564;28;45328;-83
2023/07/04 04:26:40;;;;;;;;;2.00;2.00;;;;;;;;5036115;28;46187;-85
2023/07/04 04:29:06;;;;;;;;;5.33;4.33;;;;;;;;5031972;28;47057;-84
2023/07/04 04:31:38;;;;;;;;;5.00;4.33;;;;;;;;5052179;28;45479;-84
2023/07/04 04:34:04;;;;;;;;;9.67;4.67;;;;;;;;5032177;28;45409;-84
2023/07/04 04:36:30;;;;;;;;;4.67;4.67;;;;;;;;5028822;28;47242;-82
2023/07/04 04:38:56;;;;;;;;;5.33;5.00;;;;;;;;5045471;28;46262;-82
2023/07/04 04:41:21;;;;;;;;;12.00;11.67;;;;;;;;5033172;28;45495;-84
2023/07/04 04:43:49;;;;;;;;;31.67;23.33;;;;;;;;5040959;28;45423;-84
2023/07/04 04:46:16;;;;;;;;;14.33;10.33;;;;;;;;5041257;28;45972;-84
2023/07/04 04:48:42;;;;;;;;;19.33;13.67;;;;;;;;5026026;28;46321;-85
2023/07/04 04:51:12;;;;;;;;;8.67;6.00;;;;;;;;5045345;28;45528;-85
2023/07/04 04:53:44;;;;;;;;;9.67;9.67;;;;;;;;5035085;28;45962;-85
2023/07/04 04:56:10;;;;;;;;;7.67;7.67;;;;;;;;5038560;28;45008;-80
2023/07/04 04:58:45;;;;;;;;;12.67;12.67;;;;;;;;5042422;28;45469;-85
2023/07/04 05:02:01;;;;;;;;;15.00;13.67;;;;;;;;5023790;28;46057;-83
2023/07/04 05:04:43;;;;;;;;;8.00;6.33;;;;;;;;5040329;28;45112;-82
2023/07/04 05:07:16;;;;;;;;;5.67;4.00;;;;;;;;5038498;28;45205;-83
2023/07/04 05:09:56;;;;;;;;;5.00;4.00;;;;;;;;5046254;28;45613;-82
2023/07/04 05:12:24;;;;;;;;;6.67;4.67;;;;;;;;5046227;28;45901;-84
2023/07/04 05:14:57;;;;;;;;;6.00;4.00;;;;;;;;5049016;28;45457;-85
2023/07/04 05:17:23;;;;;;;;;4.67;3.67;;;;;;;;5052903;28;45446;-84
2023/07/04 05:19:49;;;;;;;;;9.00;7.33;;;;;;;;5056434;28;45759;-84
2023/07/04 05:22:46;;;;;;;;;4.00;4.00;;;;;;;;5035671;28;45265;-84
2023/07/04 05:25:11;;;;;;;;;7.00;4.33;;;;;;;;5049795;28;45356;-86
2023/07/04 05:27:37;;;;;;;;;7.00;5.67;;;;;;;;5049777;28;45381;-84
2023/07/04 05:30:02;;;;;;;;;4.50;3.50;;;;;;;;5047480;28;45565;-84
2023/07/04 05:32:29;;;;;;;;;8.00;4.33;;;;;;;;5044179;28;45410;-86
2023/07/04 05:34:54;;;;;;;;;4.00;4.00;;;;;;;;5014714;28;45384;-84
2023/07/04 05:37:20;;;;;;;;;4.33;4.33;;;;;;;;5045639;28;45219;-86
2023/07/04 05:39:47;;;;;;;;;6.00;6.00;;;;;;;;5030474;28;45752;-86
2023/07/04 05:42:12;;;;;;;;;5.67;5.67;;;;;;;;5026997;28;46066;-86
2023/07/04 05:44:38;;;;;;;;;4.00;4.00;;;;;;;;5023890;28;45412;-84
2023/07/04 05:47:04;;;;;;;;;5.00;3.67;;;;;;;;5029520;28;45484;-85
2023/07/04 05:49:29;;;;;;;;;4.67;4.00;;;;;;;;5046750;28;46308;-83
2023/07/04 05:51:54;;;;;;;;;6.00;5.00;;;;;;;;5046072;28;45457;-82
2023/07/04 05:54:20;;;;;;;;;9.33;5.00;;;;;;;;5025934;28;45381;-86
2023/07/04 05:56:50;;;;;;;;;6.00;6.00;;;;;;;;5043495;28;45542;-86
2023/07/04 05:59:15;;;;;;;;;4.00;4.00;;;;;;;;5043061;28;46260;-83
2023/07/04 06:01:42;;;;;;;;;4.00;4.00;;;;;;;;5044693;28;44841;-83
2023/07/04 06:04:08;;;;;;;;;7.00;4.50;;;;;;;;5042722;28;45692;-79
2023/07/04 06:06:38;;;;;;;;;7.50;6.00;;;;;;;;5040943;28;45473;-79
2023/07/04 06:09:09;;;;;;;;;9.67;4.00;;;;;;;;5034669;28;45699;-79
2023/07/04 06:11:35;;;;;;;;;4.00;3.00;;;;;;;;5020293;28;45464;-79
2023/07/04 06:14:02;;;;;;;;;4.75;4.75;;;;;;;;5017290;28;45548;-80
2023/07/04 06:16:27;;;;;;;;;6.00;4.75;;;;;;;;5014281;28;45598;-79
2023/07/04 06:18:53;;;;;;;;;4.25;4.00;;;;;;;;5011873;28;46881;-81
2023/07/04 06:21:19;;;;;;;;;5.00;4.75;;;;;;;;5027444;28;45601;-80
2023/07/04 06:23:45;;;;;;;;;5.75;4.00;;;;;;;;5010115;28;46004;-79
2023/07/04 06:26:11;;;;;;;;;4.25;2.00;;;;;;;;5031036;28;45966;-80
2023/07/04 06:28:37;;;;;;;;;4.75;3.75;;;;;;;;5014199;28;47222;-82
2023/07/04 06:31:04;;;;;;;;;5.75;4.75;;;;;;;;5033488;28;45614;-85
2023/07/04 06:33:30;;;;;;;;;4.00;3.50;;;;;;;;5025791;28;45418;-87
2023/07/04 06:35:55;;;;;;;;;2.75;2.75;;;;;;;;5042406;28;45347;-85
2023/07/04 06:38:21;;;;;;;;;2.00;2.00;;;;;;;;5013956;28;48112;-83
2023/07/04 06:40:57;;;;;;;;;4.50;4.25;;;;;;;;5038803;28;45447;-85
2023/07/04 06:43:22;;;;;;;;;5.25;4.00;;;;;;;;5018960;28;45464;-84
2023/07/04 06:45:48;;;;;;;;;3.25;3.25;;;;;;;;5040757;28;45741;-84
2023/07/04 06:48:14;;;;;;;;;4.50;4.00;;;;;;;;5045560;28;45822;-84
2023/07/04 06:50:39;;;;;;;;;8.50;7.25;;;;;;;;5025901;28;46032;-85
2023/07/04 06:53:04;;;;;;;;;3.75;3.50;;;;;;;;5026899;28;45796;-84
2023/07/04 06:55:30;;;;;;;;;7.25;4.50;;;;;;;;5023265;28;46031;-83
2023/07/04 06:57:55;;;;;;;;;4.25;2.50;;;;;;;;5055098;28;45786;-86
2023/07/04 07:00:21;;;;;;;;;4.00;3.00;;;;;;;;5046090;28;45477;-93
2023/07/04 07:02:50;;;;;;;;;5.00;3.00;;;;;;;;5046680;28;44868;-92
2023/07/04 07:05:17;;;;;;;;;5.00;3.25;;;;;;;;5053027;28;45434;-89
2023/07/04 07:07:45;;;;;;;;;7.50;4.25;;;;;;;;5045156;28;45595;-91
2023/07/04 07:10:11;;;;;;;;;4.00;4.00;;;;;;;;5036649;28;45552;-88
2023/07/04 07:12:36;;;;;;;;;3.00;3.00;;;;;;;;5033782;28;45842;-90
2023/07/04 07:15:01;;;;;;;;;8.00;5.25;;;;;;;;5047438;28;45348;-91
2023/07/04 07:17:28;;;;;;;;;7.00;5.00;;;;;;;;5050302;28;45470;-89
2023/07/04 07:19:53;;;;;;;;;5.50;3.00;;;;;;;;5029142;28;45417;-87
2023/07/04 07:22:20;;;;;;;;;5.50;4.25;;;;;;;;5042837;28;45188;-89
2023/07/04 07:24:46;;;;;;;;;7.00;4.25;;;;;;;;5046399;28;45752;-88
2023/07/04 07:27:17;;;;;;;;;7.50;4.00;;;;;;;;5050723;28;46892;-89
2023/07/04 07:29:44;;;;;;;;;5.50;3.00;;;;;;;;5054439;28;45498;-87
2023/07/04 07:32:09;;;;;;;;;2.00;2.00;;;;;;;;5051956;28;45376;-88
2023/07/04 07:34:35;;;;;;;;;6.50;4.00;;;;;;;;5029510;28;45985;-89
2023/07/04 07:37:01;;;;;;;;;6.50;6.50;;;;;;;;5035534;28;45400;-88
2023/07/04 07:39:28;;;;;;;;;4.50;4.00;;;;;;;;5030411;28;45229;-89
2023/07/04 07:41:53;;;;;;;;;2.25;1.25;;;;;;;;5027578;28;45711;-87
2023/07/04 07:44:19;;;;;;;;;5.50;4.75;;;;;;;;5033175;28;46003;-91
2023/07/04 07:46:45;;;;;;;;;6.25;4.75;;;;;;;;5043288;28;46740;-90
2023/07/04 07:49:11;;;;;;;;;4.25;3.00;;;;;;;;5026814;28;44908;-91
2023/07/04 07:51:37;;;;;;;;;5.00;4.50;;;;;;;;5035470;28;45468;-89
2023/07/04 07:54:03;;;;;;;;;7.00;5.75;;;;;;;;5033344;28;45181;-88
2023/07/04 07:56:32;;;;;;;;;6.50;5.25;;;;;;;;5053257;28;45646;-89
2023/07/04 07:58:59;;;;;;;;;8.00;3.75;;;;;;;;5059591;28;44945;-90
2023/07/04 08:01:28;;;;;;;;;6.00;5.00;;;;;;;;5054525;28;45462;-92
2023/07/04 08:03:54;;;;;;;;;6.00;3.00;;;;;;;;5037664;28;47107;-91
2023/07/04 08:06:31;;;;;;;;;5.25;3.50;;;;;;;;5049673;28;46793;-91
2023/07/04 08:08:57;;;;;;;;;5.75;4.50;;;;;;;;5051715;28;44813;-91
2023/07/04 08:11:26;;;;;;;;;3.00;3.00;;;;;;;;5056999;28;44822;-91
2023/07/04 08:13:55;;;;;;;;;2.50;2.50;;;;;;;;5034936;28;45506;-89
2023/07/04 08:16:52;;;;;;;;;3.75;2.00;;;;;;;;5027651;28;45941;-89
2023/07/04 08:19:19;;;;;;;;;4.75;3.00;;;;;;;;5026770;28;45373;-90
2023/07/04 08:21:44;;;;;;;;;3.25;3.25;;;;;;;;5036400;28;45302;-88
2023/07/04 08:24:10;;;;;;;;;3.00;2.00;;;;;;;;5051877;28;44979;-88
2023/07/04 08:26:47;;;;;;;;;4.00;3.00;;;;;;;;5030048;28;45580;-90
2023/07/04 08:29:13;;;;;;;;;2.00;2.00;;;;;;;;5037418;28;45530;-88
2023/07/04 08:31:39;;;;;;;;;4.25;3.25;;;;;;;;5042186;28;44778;-89
2023/07/04 08:34:05;;;;;;;;;2.50;2.50;;;;;;;;5035748;28;45637;-89
2023/07/04 08:36:31;;;;;;;;;3.50;3.50;;;;;;;;5039245;28;46955;-86
2023/07/04 08:38:56;;;;;;;;;2.25;2.25;;;;;;;;5029265;28;45195;-85
2023/07/04 08:41:24;;;;;;;;;4.75;3.00;;;;;;;;5054251;28;45641;-88
2023/07/04 08:43:58;;;;;;;;;5.50;3.00;;;;;;;;5056380;28;44838;-87
2023/07/04 08:46:24;;;;;;;;;5.50;5.00;;;;;;;;5029289;28;45509;-90
2023/07/04 08:48:50;;;;;;;;;3.00;3.00;;;;;;;;5055775;28;45124;-91
2023/07/04 08:51:33;;;;;;;;;4.00;4.00;;;;;;;;5055656;28;45175;-90
2023/07/04 08:54:03;;;;;;;;;4.25;3.25;;;;;;;;5056291;28;45458;-89
2023/07/04 08:56:34;;;;;;;;;4.25;4.00;;;;;;;;5055205;28;45174;-86
2023/07/04 08:59:05;;;;;;;;;4.25;2.75;;;;;;;;5037453;28;45460;-89
2023/07/04 09:01:49;;;;;;;;;3.50;2.75;;;;;;;;5035221;28;45729;-89
2023/07/04 09:04:19;;;;;;;;;2.50;2.50;;;;;;;;5034644;28;45766;-90
2023/07/04 09:07:05;;;;;;;;;3.50;3.50;;;;;;;;5055109;28;45521;-91
2023/07/04 09:09:39;;;;;;;;;5.25;3.25;;;;;;;;5035936;28;45793;-89
2023/07/04 09:12:08;;;;;;;;;3.50;3.50;;;;;;;;5054261;28;45557;-90
2023/07/04 09:14:42;;;;;;;;;4.00;3.00;;;;;;;;5043430;28;45421;-90
2023/07/04 09:17:25;;;;;;;;;2.50;2.50;;;;;;;;5050314;28;45291;-90
2023/07/04 09:19:52;;;;;;;;;4.25;3.00;;;;;;;;5057131;28;45164;-89
2023/07/04 09:22:20;;;;;;;;;3.00;3.00;;;;;;;;5034149;28;44781;-89
2023/07/04 09:24:48;;;;;;;;;3.00;3.00;;;;;;;;5042912;28;45026;-92
2023/07/04 09:27:14;;;;;;;;;2.50;2.25;;;;;;;;5037349;28;45055;-86
2023/07/04 09:29:57;;;;;;;;;5.25;3.25;;;;;;;;5029345;28;45088;-87
2023/07/04 09:32:27;;;;;;;;;5.75;3.00;;;;;;;;5033620;28;44766;-90
2023/07/04 09:34:55;;;;;;;;;3.25;3.25;;;;;;;;5029589;28;46411;-92
2023/07/04 09:37:23;;;;;;;;;7.00;2.50;;;;;;;;5034576;28;48504;-91
2023/07/04 09:39:50;;;;;;;;;5.50;3.75;;;;;;;;5036516;28;44817;-90
2023/07/04 09:42:38;;;;;;;;;3.50;3.25;;;;;;;;5038154;28;45519;-89
2023/07/04 09:45:28;;;;;;;;;2.25;2.25;;;;;;;;5057086;28;45068;-89
2023/07/04 09:47:55;;;;;;;;;2.00;2.00;;;;;;;;5056741;28;44933;-90
2023/07/04 09:50:26;;;;;;;;;1.25;1.00;;;;;;;;5056789;28;44762;-91
2023/07/04 09:53:03;;;;;;;;;3.50;3.50;;;;;;;;5046247;28;44769;-89
2023/07/04 09:55:32;;;;;;;;;2.50;2.50;;;;;;;;5040835;28;45931;-88
2023/07/04 09:58:16;;;;;;;;;4.75;3.75;;;;;;;;5033644;28;46722;-89
2023/07/04 10:01:08;;;;;;;;;5.00;3.50;;;;;;;;5041838;28;45189;-90
2023/07/04 10:03:33;;;;;;;;;4.75;3.25;;;;;;;;5034225;28;44865;-89
2023/07/04 10:05:59;;;;;;;;;2.00;2.00;;;;;;;;5034556;28;45256;-90
2023/07/04 10:08:24;;;;;;;;;2.50;2.50;;;;;;;;5053019;28;45380;-89
2023/07/04 10:10:58;;;;;;;;;4.75;4.50;;;;;;;;5046044;28;44792;-89
2023/07/04 10:13:29;;;;;;;;;4.50;2.75;;;;;;;;5058543;28;44898;-89
2023/07/04 10:15:56;;;;;;;;;3.50;3.50;;;;;;;;5060303;28;44760;-90
2023/07/04 10:18:28;;;;;;;;;6.25;5.25;;;;;;;;5027540;28;47199;-90
2023/07/04 10:20:54;;;;;;;;;4.75;4.75;;;;;;;;5034019;28;44832;-91
2023/07/04 10:23:36;;;;;;;;;;;;;;;;;;;;;
2023/07/04 10:26:05;;;;;;;;;4.25;3.50;;;;;;;;5056648;28;73433;-91
2023/07/04 10:28:34;;;;;;;;;5.25;5.00;;;;;;;;5056619;28;45232;-87
2023/07/04 10:31:02;;;;;;;;;3.50;3.25;;;;;;;;5034341;28;45268;-86
2023/07/04 10:33:44;;;;;;;;;4.25;4.25;;;;;;;;5046452;28;45345;-87
2023/07/04 10:36:13;;;;;;;;;6.00;3.50;;;;;;;;5053841;28;45344;-91
2023/07/04 10:38:44;;;;;;;;;4.50;3.50;;;;;;;;5046401;28;45950;-86
2023/07/04 10:41:15;;;;;;;;;4.75;4.75;;;;;;;;5047074;28;45384;-86
2023/07/04 10:43:45;;;;;;;;;3.50;2.25;;;;;;;;5029618;28;45642;-86
2023/07/04 10:46:15;;;;;;;;;7.00;4.00;;;;;;;;5052786;28;44869;-87
2023/07/04 10:48:42;;;;;;;;;9.00;6.00;;;;;;;;5036311;28;47223;-87
2023/07/04 10:51:13;;;;;;;;;8.00;7.00;;;;;;;;5055571;28;45339;-89
2023/07/04 10:53:38;;;;;;;;;7.50;4.75;;;;;;;;5050949;28;45379;-86
2023/07/04 10:56:08;;;;;;;;;3.50;3.50;;;;;;;;5038578;28;46402;-88
2023/07/04 10:58:38;;;;;;;;;4.25;4.25;;;;;;;;5041561;28;45418;-88
2023/07/04 11:01:07;;;;;;;;;8.00;8.00;;;;;;;;5054872;28;44956;-91
2023/07/04 11:03:32;;;;;;;;;4.75;4.75;;;;;;;;5048791;28;44801;-89
2023/07/04 11:06:01;;;;;;;;;5.00;4.75;;;;;;;;5052083;28;44797;-88
2023/07/04 11:08:29;;;;;;;;;9.00;7.00;;;;;;;;5037180;28;46188;-87
2023/07/04 11:11:06;;;;;;;;;5.00;5.00;;;;;;;;5042860;28;44777;-90
2023/07/04 11:13:31;;;;;;;;;6.50;5.00;;;;;;;;5042185;28;45708;-86
2023/07/04 11:16:03;;;;;;;;;7.50;7.00;;;;;;;;5034245;28;44954;-86
2023/07/04 11:18:34;;;;;;;;;10.25;9.25;;;;;;;;5050033;28;45237;-90
2023/07/04 11:21:15;;;;;;;;;9.25;8.25;;;;;;;;5042357;28;45986;-87
2023/07/04 11:23:51;;;;;;;;;7.25;7.25;;;;;;;;5026345;28;45411;-89
2023/07/04 11:26:19;;;;;;;;;5.25;5.25;;;;;;;;5043549;28;45403;-88
2023/07/04 11:28:46;;;;;;;;;5.75;4.25;;;;;;;;5049474;28;46651;-90
2023/07/04 11:31:11;;;;;;;;;3.75;3.75;;;;;;;;5048740;28;45540;-89
2023/07/04 11:33:38;;;;;;;;;7.75;5.25;;;;;;;;5045766;28;45185;-90
2023/07/04 11:36:24;;;;;;;;;4.00;3.25;;;;;;;;5020955;28;45633;-88
2023/07/04 11:38:52;;;;;;;;;4.75;4.00;;;;;;;;5044414;28;45375;-89
2023/07/04 11:41:27;;;;;;;;;5.25;4.00;;;;;;;;5040871;28;45440;-88
2023/07/04 11:43:54;;;;;;;;;5.00;4.25;;;;;;;;5039830;28;44817;-89
2023/07/04 11:46:26;;;;;;;;;4.50;4.50;;;;;;;;5041853;28;45503;-89
2023/07/04 11:48:54;;;;;;;;;6.25;5.25;;;;;;;;5027095;28;46502;-88
2023/07/04 11:51:22;;;;;;;;;4.50;3.75;;;;;;;;5039250;28;45857;-87
2023/07/04 11:53:52;;;;;;;;;6.00;6.00;;;;;;;;5027188;28;45446;-88
2023/07/04 11:56:23;;;;;;;;;5.50;5.50;;;;;;;;5023685;28;45618;-82
2023/07/04 11:59:08;;;;;;;;;6.00;6.00;;;;;;;;5048696;28;45000;-85
2023/07/04 12:01:57;;;;;;;;;4.50;4.50;;;;;;;;5047034;28;45431;-88
2023/07/04 12:04:23;;;;;;;;;8.00;5.00;;;;;;;;5044664;28;45498;-91
2023/07/04 12:06:48;;;;;;;;;7.75;6.00;;;;;;;;5045529;28;45749;-88
2023/07/04 12:09:17;;;;;;;;;5.25;5.25;;;;;;;;5047712;28;45291;-89
2023/07/04 12:11:44;;;;;;;;;6.25;6.25;;;;;;;;5056214;28;45408;-89
2023/07/04 12:14:16;;;;;;;;;7.00;3.75;;;;;;;;5042512;28;44804;-90
2023/07/04 12:16:44;;;;;;;;;6.00;3.75;;;;;;;;5036253;28;45224;-91
2023/07/04 12:19:17;;;;;;;;;5.25;4.50;;;;;;;;5044451;28;45451;-89
2023/07/04 12:21:44;;;;;;;;;5.75;5.75;;;;;;;;5044784;28;45791;-89
2023/07/04 12:24:11;;;;;;;;;7.00;5.50;;;;;;;;5028812;28;45497;-89
2023/07/04 12:26:36;;;;;;;;;5.50;5.50;;;;;;;;5027203;28;45886;-88
2023/07/04 12:29:02;;;;;;;;;7.25;6.00;;;;;;;;5022958;28;45476;-90
2023/07/04 12:31:28;;;;;;;;;5.75;5.00;;;;;;;;5035335;28;45530;-91
2023/07/04 12:33:53;;;;;;;;;5.00;4.00;;;;;;;;5028245;28;44779;-90
2023/07/04 12:36:20;;;;;;;;;6.25;4.25;;;;;;;;5044819;28;45509;-89
2023/07/04 12:38:46;;;;;;;;;3.50;2.50;;;;;;;;5025042;28;47194;-90
2023/07/04 12:41:16;;;;;;;;;4.75;4.00;;;;;;;;5038512;28;45705;-89
2023/07/04 12:43:41;;;;;;;;;4.00;4.00;;;;;;;;5026223;28;45521;-88
2023/07/04 12:46:08;;;;;;;;;7.00;5.00;;;;;;;;5042472;28;45664;-89
2023/07/04 12:48:34;;;;;;;;;5.00;5.00;;;;;;;;5027350;28;47081;-90
2023/07/04 12:51:12;;;;;;;;;6.00;4.00;;;;;;;;5032213;28;45276;-88
2023/07/04 12:53:37;;;;;;;;;6.67;6.00;;;;;;;;5049076;28;44906;-89
2023/07/04 12:56:04;;;;;;;;;6.25;5.00;;;;;;;;5029264;28;44864;-90
2023/07/04 12:58:30;;;;;;;;;5.00;5.00;;;;;;;;5048607;28;45623;-90
2023/07/04 13:00:57;;;;;;;;;5.25;4.00;;;;;;;;5039277;28;44798;-90
2023/07/04 13:03:25;;;;;;;;;10.00;4.75;;;;;;;;5047115;28;45721;-91
2023/07/04 13:05:53;;;;;;;;;6.00;4.50;;;;;;;;5049120;28;46268;-89
2023/07/04 13:08:24;;;;;;;;;4.75;4.25;;;;;;;;5047709;28;45779;-89
2023/07/04 13:10:57;;;;;;;;;9.33;6.00;;;;;;;;5028832;28;46076;-89
2023/07/04 13:13:43;;;;;;;;;5.75;4.00;;;;;;;;5044704;28;44901;-88
2023/07/04 13:16:29;;;;;;;;;3.50;2.00;;;;;;;;5050610;28;45192;-89
2023/07/04 13:18:55;;;;;;;;;3.75;3.75;;;;;;;;5054391;28;45403;-89
2023/07/04 13:21:40;;;;;;;;;2.25;2.25;;;;;;;;5048175;28;45948;-91
2023/07/04 13:24:27;;;;;;;;;4.00;2.25;;;;;;;;5042132;28;45635;-90
2023/07/04 13:26:53;;;;;;;;;5.00;4.00;;;;;;;;5044429;28;45489;-88
2023/07/04 13:29:24;;;;;;;;;5.50;4.25;;;;;;;;5039226;28;46178;-89
2023/07/04 13:31:50;;;;;;;;;5.25;4.00;;;;;;;;5024692;28;45696;-88
2023/07/04 13:34:17;;;;;;;;;4.33;2.33;;;;;;;;5032415;28;45852;-91
2023/07/04 13:36:59;;;;;;;;;5.33;3.00;;;;;;;;5047805;28;44855;-90
2023/07/04 13:39:27;;;;;;;;;4.00;4.00;;;;;;;;5043678;28;45652;-88
2023/07/04 13:41:53;;;;;;;;;3.50;2.75;;;;;;;;5054406;28;45808;-88
2023/07/04 13:44:20;;;;;;;;;10.50;3.50;;;;;;;;5030342;28;44785;-90
2023/07/04 13:46:46;;;;;;;;;2.25;2.25;;;;;;;;5044281;28;45376;-90
2023/07/04 13:49:12;;;;;;;;;5.00;4.00;;;;;;;;5031116;28;46080;-88
2023/07/04 13:51:38;;;;;;;;;2.25;2.25;;;;;;;;5043871;28;45239;-91
2023/07/04 13:54:04;;;;;;;;;6.00;5.00;;;;;;;;5049364;28;45468;-89
2023/07/04 13:56:31;;;;;;;;;4.75;4.00;;;;;;;;5054623;28;45421;-91
2023/07/04 13:58:56;;;;;;;;;5.00;3.50;;;;;;;;5044199;28;45845;-91
2023/07/04 14:01:21;;;;;;;;;3.00;3.00;;;;;;;;5051899;28;45260;-91
2023/07/04 14:03:47;;;;;;;;;3.00;3.00;;;;;;;;5032741;28;45578;-90
2023/07/04 14:06:12;;;;;;;;;4.50;2.75;;;;;;;;5040991;28;45854;-89
2023/07/04 14:08:41;;;;;;;;;4.00;4.00;;;;;;;;5036626;28;44920;-89
2023/07/04 14:11:07;;;;;;;;;5.00;2.75;;;;;;;;5030649;28;45759;-88
2023/07/04 14:13:32;;;;;;;;;4.00;2.50;;;;;;;;5027869;28;45250;-90
2023/07/04 14:15:58;;;;;;;;;5.25;5.00;;;;;;;;5033094;28;45549;-90
2023/07/04 14:18:24;;;;;;;;;3.25;3.25;;;;;;;;5019602;28;45725;-92
2023/07/04 14:20:50;;;;;;;;;3.75;2.00;;;;;;;;5044499;28;45660;-88
2023/07/04 14:23:16;;;;;;;;;2.00;2.00;;;;;;;;5028997;28;44925;-90
2023/07/04 14:25:42;;;;;;;;;1.75;1.00;;;;;;;;5038566;28;45553;-87
2023/07/04 14:28:08;;;;;;;;;6.00;3.00;;;;;;;;5019551;28;46571;-88
2023/07/04 14:30:33;;;;;;;;;4.50;3.00;;;;;;;;5030382;28;45495;-89
2023/07/04 14:32:59;;;;;;;;;4.50;3.00;;;;;;;;5010522;28;45338;-86
2023/07/04 14:35:25;;;;;;;;;3.75;3.00;;;;;;;;5040820;28;45366;-87
2023/07/04 14:37:50;;;;;;;;;3.00;2.00;;;;;;;;5047407;28;46272;-88
2023/07/04 14:40:16;;;;;;;;;1.25;1.25;;;;;;;;5029570;28;45175;-89
2023/07/04 14:42:41;;;;;;;;;1.25;1.25;;;;;;;;5041262;28;45171;-87
2023/07/04 14:45:06;;;;;;;;;6.75;1.75;;;;;;;;5016474;28;45795;-87
2023/07/04 14:47:33;;;;;;;;;0.25;0.25;;;;;;;;5043983;28;45500;-86
2023/07/04 14:50:06;;;;;;;;;1.00;1.00;;;;;;;;5042022;28;45626;-88